sensor_id;sensor_type;location;lat;lon;timestamp;temperature;humidity
41294;DHT22;27037;52.010;4.446;2022-08-06T00:00:46;15.10;99.90
41294;DHT22;27037;52.010;4.446;2022-08-06T00:03:11;15.10;99.90
41294;DHT22;27037;52.010;4.446;2022-08-06T00:05:37;15.10;99.90
41294;DHT22;27037;52.010;4.446;2022-08-06T00:08:03;15.10;99.90
41294;DHT22;27037;52.010;4.446;2022-08-06T00:10:29;15.10;99.90
41294;DHT22;27037;52.010;4.446;2022-08-06T00:12:54;15.10;99.90
41294;DHT22;27037;52.010;4.446;2022-08-06T00:15:20;15.10;99.90
41294;DHT22;27037;52.010;4.446;2022-08-06T00:17:46;15.10;99.90
41294;DHT22;27037;52.010;4.446;2022-08-06T00:20:13;15.10;99.90
41294;DHT22;27037;52.010;4.446;2022-08-06T00:22:40;15.10;99.90
41294;DHT22;27037;52.010;4.446;2022-08-06T00:25:06;15.10;99.90
41294;DHT22;27037;52.010;4.446;2022-08-06T00:27:38;15.10;99.90
41294;DHT22;27037;52.010;4.446;2022-08-06T00:30:05;15.00;99.90
41294;DHT22;27037;52.010;4.446;2022-08-06T00:32:31;15.00;99.90
41294;DHT22;27037;52.010;4.446;2022-08-06T00:34:57;15.00;99.90
41294;DHT22;27037;52.010;4.446;2022-08-06T00:37:22;14.90;99.90
41294;DHT22;27037;52.010;4.446;2022-08-06T00:39:48;15.00;99.90
41294;DHT22;27037;52.010;4.446;2022-08-06T00:42:14;14.90;99.90
41294;DHT22;27037;52.010;4.446;2022-08-06T00:44:39;14.90;99.90
41294;DHT22;27037;52.010;4.446;2022-08-06T00:47:05;14.90;99.90
41294;DHT22;27037;52.010;4.446;2022-08-06T00:49:31;14.90;99.90
41294;DHT22;27037;52.010;4.446;2022-08-06T00:51:56;14.90;99.90
41294;DHT22;27037;52.010;4.446;2022-08-06T00:54:22;14.90;99.90
41294;DHT22;27037;52.010;4.446;2022-08-06T00:56:48;14.90;99.90
41294;DHT22;27037;52.010;4.446;2022-08-06T00:59:13;14.90;99.90
41294;DHT22;27037;52.010;4.446;2022-08-06T01:01:39;14.90;99.90
41294;DHT22;27037;52.010;4.446;2022-08-06T01:04:04;14.90;99.90
41294;DHT22;27037;52.010;4.446;2022-08-06T01:06:30;14.90;99.90
41294;DHT22;27037;52.010;4.446;2022-08-06T01:08:56;14.80;99.90
41294;DHT22;27037;52.010;4.446;2022-08-06T01:11:21;14.80;99.90
41294;DHT22;27037;52.010;4.446;2022-08-06T01:13:47;14.80;99.90
41294;DHT22;27037;52.010;4.446;2022-08-06T01:16:23;14.80;99.90
41294;DHT22;27037;52.010;4.446;2022-08-06T01:19:22;14.80;99.90
41294;DHT22;27037;52.010;4.446;2022-08-06T01:22:32;14.80;99.90
41294;DHT22;27037;52.010;4.446;2022-08-06T01:28:00;14.70;99.90
41294;DHT22;27037;52.010;4.446;2022-08-06T01:30:32;14.70;99.90
41294;DHT22;27037;52.010;4.446;2022-08-06T01:33:06;14.70;99.90
41294;DHT22;27037;52.010;4.446;2022-08-06T01:35:39;14.70;99.90
41294;DHT22;27037;52.010;4.446;2022-08-06T01:38:12;14.70;99.90
41294;DHT22;27037;52.010;4.446;2022-08-06T01:40:40;14.60;99.90
41294;DHT22;27037;52.010;4.446;2022-08-06T01:43:09;14.70;99.90
41294;DHT22;27037;52.010;4.446;2022-08-06T01:45:38;14.60;99.90
41294;DHT22;27037;52.010;4.446;2022-08-06T01:48:08;14.60;99.90
41294;DHT22;27037;52.010;4.446;2022-08-06T01:50:38;14.50;99.90
41294;DHT22;27037;52.010;4.446;2022-08-06T01:53:06;14.60;99.90
41294;DHT22;27037;52.010;4.446;2022-08-06T01:55:45;14.60;99.90
41294;DHT22;27037;52.010;4.446;2022-08-06T01:58:12;14.50;99.90
41294;DHT22;27037;52.010;4.446;2022-08-06T02:00:44;14.50;99.90
41294;DHT22;27037;52.010;4.446;2022-08-06T02:03:55;14.50;99.90
41294;DHT22;27037;52.010;4.446;2022-08-06T02:06:02;14.50;99.90
41294;DHT22;27037;52.010;4.446;2022-08-06T02:08:31;14.50;99.90
41294;DHT22;27037;52.010;4.446;2022-08-06T02:10:58;14.50;99.90
41294;DHT22;27037;52.010;4.446;2022-08-06T02:13:25;14.40;99.90
41294;DHT22;27037;52.010;4.446;2022-08-06T02:15:52;14.40;99.90
41294;DHT22;27037;52.010;4.446;2022-08-06T02:18:19;14.40;99.90
41294;DHT22;27037;52.010;4.446;2022-08-06T02:20:49;14.40;99.90
41294;DHT22;27037;52.010;4.446;2022-08-06T02:23:19;14.40;99.90
41294;DHT22;27037;52.010;4.446;2022-08-06T02:25:47;14.40;99.90
41294;DHT22;27037;52.010;4.446;2022-08-06T02:28:15;14.40;99.90
41294;DHT22;27037;52.010;4.446;2022-08-06T02:30:43;14.30;99.90
41294;DHT22;27037;52.010;4.446;2022-08-06T02:33:10;14.30;99.90
41294;DHT22;27037;52.010;4.446;2022-08-06T02:36:15;14.30;99.90
41294;DHT22;27037;52.010;4.446;2022-08-06T02:39:00;14.30;99.90
41294;DHT22;27037;52.010;4.446;2022-08-06T02:41:35;14.30;99.90
41294;DHT22;27037;52.010;4.446;2022-08-06T02:44:09;14.30;99.90
41294;DHT22;27037;52.010;4.446;2022-08-06T02:47:02;14.20;99.90
41294;DHT22;27037;52.010;4.446;2022-08-06T02:49:33;14.20;99.90
41294;DHT22;27037;52.010;4.446;2022-08-06T02:52:08;14.20;99.90
41294;DHT22;27037;52.010;4.446;2022-08-06T02:54:42;14.20;99.90
41294;DHT22;27037;52.010;4.446;2022-08-06T02:57:14;14.20;99.90
41294;DHT22;27037;52.010;4.446;2022-08-06T02:59:45;14.20;99.90
41294;DHT22;27037;52.010;4.446;2022-08-06T03:02:14;14.10;99.90
41294;DHT22;27037;52.010;4.446;2022-08-06T03:04:45;14.10;99.90
41294;DHT22;27037;52.010;4.446;2022-08-06T03:07:12;14.10;99.90
41294;DHT22;27037;52.010;4.446;2022-08-06T03:09:41;14.00;99.90
41294;DHT22;27037;52.010;4.446;2022-08-06T03:12:08;14.00;99.90
41294;DHT22;27037;52.010;4.446;2022-08-06T03:14:37;14.00;99.90
41294;DHT22;27037;52.010;4.446;2022-08-06T03:17:06;14.00;99.90
41294;DHT22;27037;52.010;4.446;2022-08-06T03:19:32;14.00;99.90
41294;DHT22;27037;52.010;4.446;2022-08-06T03:22:00;13.90;99.90
41294;DHT22;27037;52.010;4.446;2022-08-06T03:24:26;13.90;99.90
41294;DHT22;27037;52.010;4.446;2022-08-06T03:26:54;13.90;99.90
41294;DHT22;27037;52.010;4.446;2022-08-06T03:29:21;13.90;99.90
41294;DHT22;27037;52.010;4.446;2022-08-06T03:31:47;13.90;99.90
41294;DHT22;27037;52.010;4.446;2022-08-06T03:34:13;13.90;99.90
41294;DHT22;27037;52.010;4.446;2022-08-06T03:36:39;13.90;99.90
41294;DHT22;27037;52.010;4.446;2022-08-06T03:39:07;13.90;99.90
41294;DHT22;27037;52.010;4.446;2022-08-06T03:41:35;13.80;99.90
41294;DHT22;27037;52.010;4.446;2022-08-06T03:44:03;13.80;99.90
41294;DHT22;27037;52.010;4.446;2022-08-06T03:49:02;13.80;99.90
41294;DHT22;27037;52.010;4.446;2022-08-06T03:51:30;13.80;99.90
41294;DHT22;27037;52.010;4.446;2022-08-06T03:53:58;13.80;99.90
41294;DHT22;27037;52.010;4.446;2022-08-06T03:56:27;13.70;99.90
41294;DHT22;27037;52.010;4.446;2022-08-06T03:58:58;13.70;99.90
41294;DHT22;27037;52.010;4.446;2022-08-06T04:01:27;13.70;99.90
41294;DHT22;27037;52.010;4.446;2022-08-06T04:03:55;13.70;99.90
41294;DHT22;27037;52.010;4.446;2022-08-06T04:06:22;13.70;99.90
41294;DHT22;27037;52.010;4.446;2022-08-06T04:08:49;13.70;99.90
41294;DHT22;27037;52.010;4.446;2022-08-06T04:11:16;13.70;99.90
41294;DHT22;27037;52.010;4.446;2022-08-06T04:13:44;13.70;99.90
41294;DHT22;27037;52.010;4.446;2022-08-06T04:16:12;13.70;99.90
41294;DHT22;27037;52.010;4.446;2022-08-06T04:18:39;13.70;99.90
41294;DHT22;27037;52.010;4.446;2022-08-06T04:21:09;13.70;99.90
41294;DHT22;27037;52.010;4.446;2022-08-06T04:23:35;13.70;99.90
41294;DHT22;27037;52.010;4.446;2022-08-06T04:26:06;13.70;99.90
41294;DHT22;27037;52.010;4.446;2022-08-06T04:28:35;13.70;99.90
41294;DHT22;27037;52.010;4.446;2022-08-06T04:31:02;13.70;99.90
41294;DHT22;27037;52.010;4.446;2022-08-06T04:33:30;13.70;99.90
41294;DHT22;27037;52.010;4.446;2022-08-06T04:35:59;13.70;99.90
41294;DHT22;27037;52.010;4.446;2022-08-06T04:38:31;13.70;99.90
41294;DHT22;27037;52.010;4.446;2022-08-06T04:40:57;13.70;99.90
41294;DHT22;27037;52.010;4.446;2022-08-06T04:43:23;13.70;99.90
41294;DHT22;27037;52.010;4.446;2022-08-06T04:45:49;13.70;99.90
41294;DHT22;27037;52.010;4.446;2022-08-06T04:48:15;13.70;99.90
41294;DHT22;27037;52.010;4.446;2022-08-06T04:50:41;13.60;99.90
41294;DHT22;27037;52.010;4.446;2022-08-06T04:53:09;13.70;99.90
41294;DHT22;27037;52.010;4.446;2022-08-06T04:55:35;13.70;99.90
41294;DHT22;27037;52.010;4.446;2022-08-06T04:58:03;13.70;99.90
41294;DHT22;27037;52.010;4.446;2022-08-06T05:00:34;13.70;99.90
41294;DHT22;27037;52.010;4.446;2022-08-06T05:03:00;13.70;99.90
41294;DHT22;27037;52.010;4.446;2022-08-06T05:05:26;13.70;99.90
41294;DHT22;27037;52.010;4.446;2022-08-06T05:07:53;13.80;99.90
41294;DHT22;27037;52.010;4.446;2022-08-06T05:10:25;13.70;99.90
41294;DHT22;27037;52.010;4.446;2022-08-06T05:12:55;13.80;99.90
41294;DHT22;27037;52.010;4.446;2022-08-06T05:15:33;13.80;99.90
41294;DHT22;27037;52.010;4.446;2022-08-06T05:18:51;13.80;99.90
41294;DHT22;27037;52.010;4.446;2022-08-06T05:21:33;13.80;99.90
41294;DHT22;27037;52.010;4.446;2022-08-06T05:23:59;13.90;99.90
41294;DHT22;27037;52.010;4.446;2022-08-06T05:26:25;13.90;99.90
41294;DHT22;27037;52.010;4.446;2022-08-06T05:28:52;13.90;99.90
41294;DHT22;27037;52.010;4.446;2022-08-06T05:31:31;14.00;99.90
41294;DHT22;27037;52.010;4.446;2022-08-06T05:33:57;14.00;99.90
41294;DHT22;27037;52.010;4.446;2022-08-06T05:36:22;14.10;99.90
41294;DHT22;27037;52.010;4.446;2022-08-06T05:38:48;14.10;99.90
41294;DHT22;27037;52.010;4.446;2022-08-06T05:41:14;14.10;99.90
41294;DHT22;27037;52.010;4.446;2022-08-06T05:43:40;14.20;99.90
41294;DHT22;27037;52.010;4.446;2022-08-06T05:46:10;14.20;99.90
41294;DHT22;27037;52.010;4.446;2022-08-06T05:48:49;14.20;99.90
41294;DHT22;27037;52.010;4.446;2022-08-06T05:51:40;14.30;99.90
41294;DHT22;27037;52.010;4.446;2022-08-06T05:54:18;14.30;99.90
41294;DHT22;27037;52.010;4.446;2022-08-06T05:56:46;14.40;99.90
41294;DHT22;27037;52.010;4.446;2022-08-06T05:59:24;14.40;99.90
41294;DHT22;27037;52.010;4.446;2022-08-06T06:01:50;14.50;99.90
41294;DHT22;27037;52.010;4.446;2022-08-06T06:04:18;14.50;99.90
41294;DHT22;27037;52.010;4.446;2022-08-06T06:06:44;14.50;99.90
41294;DHT22;27037;52.010;4.446;2022-08-06T06:09:10;14.50;99.90
41294;DHT22;27037;52.010;4.446;2022-08-06T06:11:39;14.60;99.90
41294;DHT22;27037;52.010;4.446;2022-08-06T06:14:09;14.70;99.90
41294;DHT22;27037;52.010;4.446;2022-08-06T06:16:56;14.80;99.90
41294;DHT22;27037;52.010;4.446;2022-08-06T06:20:07;14.80;99.90
41294;DHT22;27037;52.010;4.446;2022-08-06T06:22:39;14.90;99.90
41294;DHT22;27037;52.010;4.446;2022-08-06T06:25:17;15.00;99.90
41294;DHT22;27037;52.010;4.446;2022-08-06T06:28:05;15.10;99.90
41294;DHT22;27037;52.010;4.446;2022-08-06T06:33:21;15.20;99.90
41294;DHT22;27037;52.010;4.446;2022-08-06T06:35:53;15.30;99.90
41294;DHT22;27037;52.010;4.446;2022-08-06T06:40:54;15.40;99.90
41294;DHT22;27037;52.010;4.446;2022-08-06T06:43:48;15.50;99.90
41294;DHT22;27037;52.010;4.446;2022-08-06T06:46:36;15.50;99.90
41294;DHT22;27037;52.010;4.446;2022-08-06T06:49:18;15.60;99.90
41294;DHT22;27037;52.010;4.446;2022-08-06T06:52:44;15.70;99.90
41294;DHT22;27037;52.010;4.446;2022-08-06T06:54:47;15.80;99.90
41294;DHT22;27037;52.010;4.446;2022-08-06T06:57:29;15.90;99.90
41294;DHT22;27037;52.010;4.446;2022-08-06T06:59:55;16.00;99.90
41294;DHT22;27037;52.010;4.446;2022-08-06T07:02:24;16.10;99.90
41294;DHT22;27037;52.010;4.446;2022-08-06T07:04:51;16.20;99.90
41294;DHT22;27037;52.010;4.446;2022-08-06T07:07:18;16.30;99.90
41294;DHT22;27037;52.010;4.446;2022-08-06T07:09:46;16.40;99.90
41294;DHT22;27037;52.010;4.446;2022-08-06T07:12:14;16.50;99.90
41294;DHT22;27037;52.010;4.446;2022-08-06T07:14:41;16.60;99.90
41294;DHT22;27037;52.010;4.446;2022-08-06T07:17:08;16.80;99.90
41294;DHT22;27037;52.010;4.446;2022-08-06T07:19:36;16.90;99.90
41294;DHT22;27037;52.010;4.446;2022-08-06T07:22:03;17.00;99.90
41294;DHT22;27037;52.010;4.446;2022-08-06T07:24:31;17.20;99.90
41294;DHT22;27037;52.010;4.446;2022-08-06T07:26:58;17.30;99.90
41294;DHT22;27037;52.010;4.446;2022-08-06T07:29:26;17.50;99.90
41294;DHT22;27037;52.010;4.446;2022-08-06T07:31:55;17.60;99.90
41294;DHT22;27037;52.010;4.446;2022-08-06T07:34:22;17.80;99.90
41294;DHT22;27037;52.010;4.446;2022-08-06T07:36:51;17.90;99.90
41294;DHT22;27037;52.010;4.446;2022-08-06T07:39:37;18.00;99.90
41294;DHT22;27037;52.010;4.446;2022-08-06T07:42:07;18.20;99.90
41294;DHT22;27037;52.010;4.446;2022-08-06T07:44:39;18.30;99.90
41294;DHT22;27037;52.010;4.446;2022-08-06T07:47:06;18.50;99.90
41294;DHT22;27037;52.010;4.446;2022-08-06T07:49:36;18.60;99.90
41294;DHT22;27037;52.010;4.446;2022-08-06T07:52:04;18.80;99.90
41294;DHT22;27037;52.010;4.446;2022-08-06T07:54:31;18.90;99.90
41294;DHT22;27037;52.010;4.446;2022-08-06T07:56:57;19.10;99.90
41294;DHT22;27037;52.010;4.446;2022-08-06T07:59:24;19.20;99.90
41294;DHT22;27037;52.010;4.446;2022-08-06T08:01:51;19.40;99.90
41294;DHT22;27037;52.010;4.446;2022-08-06T08:04:17;19.50;99.90
41294;DHT22;27037;52.010;4.446;2022-08-06T08:07:04;19.80;99.90
41294;DHT22;27037;52.010;4.446;2022-08-06T08:09:31;19.90;99.90
41294;DHT22;27037;52.010;4.446;2022-08-06T08:11:57;20.00;99.90
41294;DHT22;27037;52.010;4.446;2022-08-06T08:14:24;20.10;99.90
41294;DHT22;27037;52.010;4.446;2022-08-06T08:16:50;20.20;99.90
41294;DHT22;27037;52.010;4.446;2022-08-06T08:19:24;20.30;99.50
41294;DHT22;27037;52.010;4.446;2022-08-06T08:21:51;20.50;98.90
41294;DHT22;27037;52.010;4.446;2022-08-06T08:24:17;20.60;98.20
41294;DHT22;27037;52.010;4.446;2022-08-06T08:26:44;20.70;97.20
41294;DHT22;27037;52.010;4.446;2022-08-06T08:29:11;20.70;96.70
41294;DHT22;27037;52.010;4.446;2022-08-06T08:31:36;20.70;96.40
41294;DHT22;27037;52.010;4.446;2022-08-06T08:34:02;20.80;96.30
41294;DHT22;27037;52.010;4.446;2022-08-06T08:36:28;20.90;96.10
41294;DHT22;27037;52.010;4.446;2022-08-06T08:38:53;21.10;95.20
41294;DHT22;27037;52.010;4.446;2022-08-06T08:41:25;21.10;94.20
41294;DHT22;27037;52.010;4.446;2022-08-06T08:44:22;21.10;93.60
41294;DHT22;27037;52.010;4.446;2022-08-06T08:46:49;21.10;93.20
41294;DHT22;27037;52.010;4.446;2022-08-06T08:49:40;21.10;93.10
41294;DHT22;27037;52.010;4.446;2022-08-06T08:52:14;21.30;93.20
41294;DHT22;27037;52.010;4.446;2022-08-06T08:54:42;21.40;92.70
41294;DHT22;27037;52.010;4.446;2022-08-06T08:57:10;21.50;92.50
41294;DHT22;27037;52.010;4.446;2022-08-06T08:59:36;21.70;91.90
41294;DHT22;27037;52.010;4.446;2022-08-06T09:02:03;21.80;91.10
41294;DHT22;27037;52.010;4.446;2022-08-06T09:04:31;21.90;90.70
41294;DHT22;27037;52.010;4.446;2022-08-06T09:06:57;22.00;90.50
41294;DHT22;27037;52.010;4.446;2022-08-06T09:09:24;22.00;89.10
41294;DHT22;27037;52.010;4.446;2022-08-06T09:11:49;21.90;87.60
41294;DHT22;27037;52.010;4.446;2022-08-06T09:14:15;21.70;88.30
41294;DHT22;27037;52.010;4.446;2022-08-06T09:16:41;21.60;88.60
41294;DHT22;27037;52.010;4.446;2022-08-06T09:19:06;21.50;87.90
41294;DHT22;27037;52.010;4.446;2022-08-06T09:21:32;21.60;87.00
41294;DHT22;27037;52.010;4.446;2022-08-06T09:23:58;21.70;85.60
41294;DHT22;27037;52.010;4.446;2022-08-06T09:26:25;21.90;84.20
41294;DHT22;27037;52.010;4.446;2022-08-06T09:28:50;21.90;83.50
41294;DHT22;27037;52.010;4.446;2022-08-06T09:31:18;22.00;83.20
41294;DHT22;27037;52.010;4.446;2022-08-06T09:34:04;22.20;82.40
41294;DHT22;27037;52.010;4.446;2022-08-06T09:36:42;22.40;81.20
41294;DHT22;27037;52.010;4.446;2022-08-06T09:39:08;22.60;81.00
41294;DHT22;27037;52.010;4.446;2022-08-06T09:41:48;22.80;80.50
41294;DHT22;27037;52.010;4.446;2022-08-06T09:44:13;22.80;80.00
41294;DHT22;27037;52.010;4.446;2022-08-06T09:49:05;22.70;76.20
41294;DHT22;27037;52.010;4.446;2022-08-06T09:51:31;22.70;76.90
41294;DHT22;27037;52.010;4.446;2022-08-06T09:54:01;22.70;76.40
41294;DHT22;27037;52.010;4.446;2022-08-06T09:56:27;22.90;76.70
41294;DHT22;27037;52.010;4.446;2022-08-06T09:59:03;23.00;75.80
41294;DHT22;27037;52.010;4.446;2022-08-06T10:01:29;23.20;72.80
41294;DHT22;27037;52.010;4.446;2022-08-06T10:04:02;23.10;71.40
41294;DHT22;27037;52.010;4.446;2022-08-06T10:06:28;23.10;69.60
41294;DHT22;27037;52.010;4.446;2022-08-06T10:09:11;23.10;67.80
41294;DHT22;27037;52.010;4.446;2022-08-06T10:11:40;23.20;67.20
41294;DHT22;27037;52.010;4.446;2022-08-06T10:14:20;23.40;68.20
41294;DHT22;27037;52.010;4.446;2022-08-06T10:19:31;23.50;69.30
41294;DHT22;27037;52.010;4.446;2022-08-06T10:27:10;23.20;64.30
41294;DHT22;27037;52.010;4.446;2022-08-06T10:29:41;23.00;64.50
41294;DHT22;27037;52.010;4.446;2022-08-06T10:32:09;23.00;65.80
41294;DHT22;27037;52.010;4.446;2022-08-06T10:34:38;23.20;64.90
41294;DHT22;27037;52.010;4.446;2022-08-06T10:37:06;23.30;60.80
41294;DHT22;27037;52.010;4.446;2022-08-06T10:39:35;23.40;60.50
41294;DHT22;27037;52.010;4.446;2022-08-06T10:42:03;23.40;62.20
41294;DHT22;27037;52.010;4.446;2022-08-06T10:44:31;23.60;62.50
41294;DHT22;27037;52.010;4.446;2022-08-06T10:46:58;23.70;62.30
41294;DHT22;27037;52.010;4.446;2022-08-06T10:49:25;23.90;62.50
41294;DHT22;27037;52.010;4.446;2022-08-06T10:51:52;24.20;62.20
41294;DHT22;27037;52.010;4.446;2022-08-06T10:54:18;24.50;61.80
41294;DHT22;27037;52.010;4.446;2022-08-06T10:56:48;24.60;60.30
41294;DHT22;27037;52.010;4.446;2022-08-06T10:59:14;24.50;59.60
41294;DHT22;27037;52.010;4.446;2022-08-06T11:01:54;24.40;59.50
41294;DHT22;27037;52.010;4.446;2022-08-06T11:04:31;24.20;60.10
41294;DHT22;27037;52.010;4.446;2022-08-06T11:12:50;24.00;60.20
41294;DHT22;27037;52.010;4.446;2022-08-06T11:15:19;23.70;60.00
41294;DHT22;27037;52.010;4.446;2022-08-06T11:18:02;23.30;59.70
41294;DHT22;27037;52.010;4.446;2022-08-06T11:23:22;23.10;59.90
41294;DHT22;27037;52.010;4.446;2022-08-06T11:26:08;23.30;60.40
41294;DHT22;27037;52.010;4.446;2022-08-06T11:31:01;23.50;60.00
41294;DHT22;27037;52.010;4.446;2022-08-06T11:36:06;23.40;58.50
41294;DHT22;27037;52.010;4.446;2022-08-06T11:41:20;23.10;59.70
41294;DHT22;27037;52.010;4.446;2022-08-06T11:46:23;23.40;58.80
41294;DHT22;27037;52.010;4.446;2022-08-06T11:51:52;23.60;58.00
41294;DHT22;27037;52.010;4.446;2022-08-06T11:54:31;23.70;58.00
41294;DHT22;27037;52.010;4.446;2022-08-06T12:02:14;24.20;58.00
41294;DHT22;27037;52.010;4.446;2022-08-06T12:04:44;24.30;57.00
41294;DHT22;27037;52.010;4.446;2022-08-06T12:07:20;24.30;56.20
41294;DHT22;27037;52.010;4.446;2022-08-06T12:12:46;24.60;53.80
41294;DHT22;27037;52.010;4.446;2022-08-06T12:17:39;24.70;53.40
41294;DHT22;27037;52.010;4.446;2022-08-06T12:20:06;24.90;54.00
41294;DHT22;27037;52.010;4.446;2022-08-06T12:22:33;25.00;54.00
41294;DHT22;27037;52.010;4.446;2022-08-06T12:25:04;25.20;53.60
41294;DHT22;27037;52.010;4.446;2022-08-06T12:27:33;25.20;53.40
41294;DHT22;27037;52.010;4.446;2022-08-06T12:30:00;25.30;53.00
41294;DHT22;27037;52.010;4.446;2022-08-06T12:32:34;25.30;52.10
41294;DHT22;27037;52.010;4.446;2022-08-06T12:35:09;25.10;52.80
41294;DHT22;27037;52.010;4.446;2022-08-06T12:37:45;25.00;53.20
41294;DHT22;27037;52.010;4.446;2022-08-06T12:40:16;25.00;52.80
41294;DHT22;27037;52.010;4.446;2022-08-06T12:45:32;24.90;54.10
41294;DHT22;27037;52.010;4.446;2022-08-06T12:48:04;24.90;53.70
41294;DHT22;27037;52.010;4.446;2022-08-06T12:50:32;24.90;53.50
41294;DHT22;27037;52.010;4.446;2022-08-06T12:53:03;24.70;53.10
41294;DHT22;27037;52.010;4.446;2022-08-06T12:55:31;24.70;53.60
41294;DHT22;27037;52.010;4.446;2022-08-06T12:57:58;24.70;53.30
41294;DHT22;27037;52.010;4.446;2022-08-06T13:00:25;24.70;53.00
41294;DHT22;27037;52.010;4.446;2022-08-06T13:02:51;24.60;52.40
41294;DHT22;27037;52.010;4.446;2022-08-06T13:05:17;24.70;52.10
41294;DHT22;27037;52.010;4.446;2022-08-06T13:07:44;24.70;52.10
41294;DHT22;27037;52.010;4.446;2022-08-06T13:10:13;24.70;51.30
41294;DHT22;27037;52.010;4.446;2022-08-06T13:12:39;24.70;50.50
41294;DHT22;27037;52.010;4.446;2022-08-06T13:15:13;24.70;50.50
41294;DHT22;27037;52.010;4.446;2022-08-06T13:17:39;24.80;51.00
41294;DHT22;27037;52.010;4.446;2022-08-06T13:20:05;24.80;51.20
41294;DHT22;27037;52.010;4.446;2022-08-06T13:22:48;24.70;51.80
41294;DHT22;27037;52.010;4.446;2022-08-06T13:25:14;24.80;52.30
41294;DHT22;27037;52.010;4.446;2022-08-06T13:27:42;24.70;52.30
41294;DHT22;27037;52.010;4.446;2022-08-06T13:30:09;24.80;52.30
41294;DHT22;27037;52.010;4.446;2022-08-06T13:32:35;24.70;51.80
41294;DHT22;27037;52.010;4.446;2022-08-06T13:35:04;24.70;52.10
41294;DHT22;27037;52.010;4.446;2022-08-06T13:37:47;24.70;51.80
41294;DHT22;27037;52.010;4.446;2022-08-06T13:40:17;24.90;51.80
41294;DHT22;27037;52.010;4.446;2022-08-06T13:43:10;24.80;52.40
41294;DHT22;27037;52.010;4.446;2022-08-06T13:45:36;24.70;53.00
41294;DHT22;27037;52.010;4.446;2022-08-06T13:48:05;24.70;52.90
41294;DHT22;27037;52.010;4.446;2022-08-06T13:50:42;24.80;53.30
41294;DHT22;27037;52.010;4.446;2022-08-06T13:53:09;24.90;53.10
41294;DHT22;27037;52.010;4.446;2022-08-06T13:55:37;24.80;52.10
41294;DHT22;27037;52.010;4.446;2022-08-06T13:58:03;24.70;52.40
41294;DHT22;27037;52.010;4.446;2022-08-06T14:00:29;24.70;52.20
41294;DHT22;27037;52.010;4.446;2022-08-06T14:02:55;24.80;51.50
41294;DHT22;27037;52.010;4.446;2022-08-06T14:05:22;24.80;51.60
41294;DHT22;27037;52.010;4.446;2022-08-06T14:07:48;24.90;52.10
41294;DHT22;27037;52.010;4.446;2022-08-06T14:10:14;25.10;52.40
41294;DHT22;27037;52.010;4.446;2022-08-06T14:12:40;25.20;52.10
41294;DHT22;27037;52.010;4.446;2022-08-06T14:15:07;25.30;51.80
41294;DHT22;27037;52.010;4.446;2022-08-06T14:17:33;25.40;51.00
41294;DHT22;27037;52.010;4.446;2022-08-06T14:19:59;25.30;51.50
41294;DHT22;27037;52.010;4.446;2022-08-06T14:22:24;25.30;52.50
41294;DHT22;27037;52.010;4.446;2022-08-06T14:24:50;25.40;52.30
41294;DHT22;27037;52.010;4.446;2022-08-06T14:27:15;25.40;52.50
41294;DHT22;27037;52.010;4.446;2022-08-06T14:29:41;25.30;52.80
41294;DHT22;27037;52.010;4.446;2022-08-06T14:32:07;25.00;52.10
41294;DHT22;27037;52.010;4.446;2022-08-06T14:34:33;25.10;52.70
41294;DHT22;27037;52.010;4.446;2022-08-06T14:37:00;25.10;52.40
41294;DHT22;27037;52.010;4.446;2022-08-06T14:39:25;25.10;52.20
41294;DHT22;27037;52.010;4.446;2022-08-06T14:41:51;25.10;52.80
41294;DHT22;27037;52.010;4.446;2022-08-06T14:44:35;25.20;52.60
41294;DHT22;27037;52.010;4.446;2022-08-06T14:47:19;25.10;52.40
41294;DHT22;27037;52.010;4.446;2022-08-06T14:49:45;25.00;52.20
41294;DHT22;27037;52.010;4.446;2022-08-06T14:52:11;25.10;52.60
41294;DHT22;27037;52.010;4.446;2022-08-06T14:54:37;25.00;52.60
41294;DHT22;27037;52.010;4.446;2022-08-06T14:57:05;25.00;52.80
41294;DHT22;27037;52.010;4.446;2022-08-06T14:59:30;25.10;53.00
41294;DHT22;27037;52.010;4.446;2022-08-06T15:01:56;25.10;52.80
41294;DHT22;27037;52.010;4.446;2022-08-06T15:04:22;25.10;52.00
41294;DHT22;27037;52.010;4.446;2022-08-06T15:06:48;24.90;52.80
41294;DHT22;27037;52.010;4.446;2022-08-06T15:09:14;24.80;52.70
41294;DHT22;27037;52.010;4.446;2022-08-06T15:11:40;24.70;52.80
41294;DHT22;27037;52.010;4.446;2022-08-06T15:14:06;24.80;53.10
41294;DHT22;27037;52.010;4.446;2022-08-06T15:16:32;24.80;53.50
41294;DHT22;27037;52.010;4.446;2022-08-06T15:18:58;24.80;53.60
41294;DHT22;27037;52.010;4.446;2022-08-06T15:21:24;24.80;53.40
41294;DHT22;27037;52.010;4.446;2022-08-06T15:23:50;24.80;53.50
41294;DHT22;27037;52.010;4.446;2022-08-06T15:26:16;24.80;54.10
41294;DHT22;27037;52.010;4.446;2022-08-06T15:28:42;24.80;53.20
41294;DHT22;27037;52.010;4.446;2022-08-06T15:31:08;24.70;53.70
41294;DHT22;27037;52.010;4.446;2022-08-06T15:33:34;24.40;54.00
41294;DHT22;27037;52.010;4.446;2022-08-06T15:35:59;24.20;54.30
41294;DHT22;27037;52.010;4.446;2022-08-06T15:38:26;24.30;54.70
41294;DHT22;27037;52.010;4.446;2022-08-06T15:40:52;24.40;54.70
41294;DHT22;27037;52.010;4.446;2022-08-06T15:43:18;24.50;54.80
41294;DHT22;27037;52.010;4.446;2022-08-06T15:45:45;24.70;54.60
41294;DHT22;27037;52.010;4.446;2022-08-06T15:48:11;24.70;54.00
41294;DHT22;27037;52.010;4.446;2022-08-06T15:50:43;24.80;54.40
41294;DHT22;27037;52.010;4.446;2022-08-06T15:53:10;24.80;53.70
41294;DHT22;27037;52.010;4.446;2022-08-06T15:55:36;24.60;52.20
41294;DHT22;27037;52.010;4.446;2022-08-06T15:58:02;24.40;52.10
41294;DHT22;27037;52.010;4.446;2022-08-06T16:00:28;24.10;52.60
41294;DHT22;27037;52.010;4.446;2022-08-06T16:02:53;23.80;53.10
41294;DHT22;27037;52.010;4.446;2022-08-06T16:05:20;23.60;54.70
41294;DHT22;27037;52.010;4.446;2022-08-06T16:07:46;23.60;54.20
41294;DHT22;27037;52.010;4.446;2022-08-06T16:10:12;23.60;55.10
41294;DHT22;27037;52.010;4.446;2022-08-06T16:12:38;23.70;55.70
41294;DHT22;27037;52.010;4.446;2022-08-06T16:15:05;23.80;55.90
41294;DHT22;27037;52.010;4.446;2022-08-06T16:17:31;23.70;55.20
41294;DHT22;27037;52.010;4.446;2022-08-06T16:19:57;23.70;55.90
41294;DHT22;27037;52.010;4.446;2022-08-06T16:22:22;23.70;55.90
41294;DHT22;27037;52.010;4.446;2022-08-06T16:24:48;23.90;55.90
41294;DHT22;27037;52.010;4.446;2022-08-06T16:27:14;23.90;56.20
41294;DHT22;27037;52.010;4.446;2022-08-06T16:29:42;23.90;56.30
41294;DHT22;27037;52.010;4.446;2022-08-06T16:32:09;23.80;55.20
41294;DHT22;27037;52.010;4.446;2022-08-06T16:34:35;23.60;55.20
41294;DHT22;27037;52.010;4.446;2022-08-06T16:37:01;23.50;55.60
41294;DHT22;27037;52.010;4.446;2022-08-06T16:39:29;23.40;56.10
41294;DHT22;27037;52.010;4.446;2022-08-06T16:41:55;23.40;55.90